createdAt,value
2022-08-26T00:04:44.105Z,100.00
2022-08-26T00:09:49.972Z,100.00
2022-08-26T00:14:54.918Z,100.00
2022-08-26T00:20:01.081Z,100.00
2022-08-26T00:25:06.030Z,100.00
2022-08-26T00:30:14.335Z,100.00
2022-08-26T00:35:21.140Z,100.00
2022-08-26T00:40:31.415Z,100.00
2022-08-26T00:45:44.163Z,100.00
2022-08-26T00:50:54.155Z,100.00
2022-08-26T00:56:02.901Z,100.00
2022-08-26T01:01:07.179Z,100.00
2022-08-26T01:06:13.407Z,100.00
2022-08-26T01:11:17.834Z,100.00
2022-08-26T01:16:24.988Z,100.00
2022-08-26T01:21:40.723Z,100.00
2022-08-26T01:26:46.840Z,100.00
2022-08-26T01:31:57.132Z,100.00
2022-08-26T01:37:07.090Z,100.00
2022-08-26T01:42:17.303Z,100.00
2022-08-26T01:47:25.838Z,100.00
2022-08-26T01:52:33.022Z,100.00
2022-08-26T01:57:39.557Z,100.00
2022-08-26T02:02:45.149Z,100.00
2022-08-26T02:07:51.027Z,100.00
2022-08-26T02:12:56.575Z,100.00
2022-08-26T02:18:02.523Z,100.00
2022-08-26T02:23:09.702Z,100.00
2022-08-26T02:28:17.432Z,100.00
2022-08-26T02:33:24.035Z,100.00
2022-08-26T02:38:29.570Z,100.00
2022-08-26T02:43:35.016Z,100.00
2022-08-26T02:48:39.197Z,100.00
2022-08-26T02:53:43.340Z,100.00
2022-08-26T02:58:48.839Z,100.00
2022-08-26T03:03:52.866Z,100.00
2022-08-26T03:08:57.006Z,100.00
2022-08-26T03:14:04.314Z,100.00
2022-08-26T03:19:09.854Z,100.00
2022-08-26T03:24:14.572Z,100.00
2022-08-26T03:29:37.346Z,100.00
2022-08-26T03:34:43.041Z,100.00
2022-08-26T03:39:47.307Z,100.00
2022-08-26T03:44:52.721Z,100.00
2022-08-26T03:49:59.285Z,100.00
2022-08-26T03:55:03.624Z,100.00
2022-08-26T04:00:13.862Z,100.00
2022-08-26T04:05:21.844Z,100.00
2022-08-26T04:10:29.237Z,100.00
2022-08-26T04:15:35.072Z,100.00
2022-08-26T04:20:39.363Z,100.00
2022-08-26T04:25:43.402Z,100.00
2022-08-26T04:30:49.601Z,100.00
2022-08-26T04:36:01.483Z,100.00
2022-08-26T04:41:15.661Z,100.00
2022-08-26T04:46:24.756Z,100.00
2022-08-26T04:51:28.985Z,100.00
2022-08-26T04:56:36.644Z,100.00
2022-08-26T05:01:45.868Z,100.00
2022-08-26T05:06:51.100Z,100.00
2022-08-26T05:11:56.280Z,100.00
2022-08-26T05:17:01.941Z,100.00
2022-08-26T05:22:06.734Z,100.00
2022-08-26T05:27:12.050Z,100.00
2022-08-26T05:32:18.226Z,100.00
2022-08-26T05:37:22.639Z,100.00
2022-08-26T05:42:26.817Z,100.00
2022-08-26T05:47:32.291Z,100.00
2022-08-26T05:52:36.514Z,100.00
2022-08-26T05:57:40.595Z,100.00
2022-08-26T06:02:48.794Z,100.00
2022-08-26T06:08:10.131Z,100.00
2022-08-26T06:13:14.472Z,100.00
2022-08-26T06:18:23.251Z,100.00
2022-08-26T06:23:46.978Z,100.00
2022-08-26T06:28:51.811Z,100.00
2022-08-26T06:33:58.435Z,100.00
2022-08-26T06:39:06.719Z,98.31
2022-08-26T06:44:10.838Z,96.69
2022-08-26T06:49:17.238Z,92.71
2022-08-26T06:54:21.636Z,100.00
2022-08-26T06:59:26.470Z,100.00
2022-08-26T07:04:33.535Z,100.00
2022-08-26T07:09:37.629Z,100.00
2022-08-26T07:14:47.545Z,100.00
2022-08-26T07:19:53.974Z,96.86
2022-08-26T07:24:58.039Z,100.00
2022-08-26T07:30:02.340Z,98.45
2022-08-26T07:35:09.169Z,83.95
2022-08-26T07:40:13.343Z,93.24
2022-08-26T07:45:21.839Z,96.72
2022-08-26T07:50:49.320Z,99.43
2022-08-26T07:55:52.635Z,93.35
2022-08-26T08:00:56.863Z,100.00
2022-08-26T08:06:04.600Z,92.11
2022-08-26T08:11:10.552Z,82.71
2022-08-26T08:16:14.654Z,64.75
2022-08-26T08:21:22.092Z,74.37
2022-08-26T08:26:28.108Z,78.11
2022-08-26T08:37:01.362Z,91.36
2022-08-26T08:42:31.846Z,100.00
2022-08-26T08:47:38.834Z,88.32
2022-08-26T08:52:50.538Z,87.46
2022-08-26T08:58:04.128Z,74.68
2022-08-26T09:03:20.902Z,77.62
2022-08-26T09:08:29.578Z,84.28
2022-08-26T09:13:33.504Z,81.07
2022-08-26T09:19:04.733Z,70.43
2022-08-26T09:24:11.185Z,65.93
2022-08-26T09:29:24.773Z,60.72
2022-08-26T09:34:29.536Z,66.05
2022-08-26T09:39:40.361Z,77.73
2022-08-26T09:44:57.529Z,64.89
2022-08-26T09:50:09.588Z,69.90
2022-08-26T09:55:22.763Z,60.18
2022-08-26T10:00:31.482Z,61.60
2022-08-26T10:05:43.708Z,59.90
2022-08-26T10:10:53.221Z,63.95
2022-08-26T10:16:05.692Z,65.06
2022-08-26T10:21:14.460Z,66.94
2022-08-26T10:26:29.371Z,72.82
2022-08-26T10:31:40.351Z,66.72
2022-08-26T10:37:13.560Z,58.40
2022-08-26T10:42:24.256Z,59.18
2022-08-26T10:47:36.425Z,59.67
2022-08-26T10:52:54.156Z,58.33
2022-08-26T10:58:08.089Z,54.88
2022-08-26T11:03:29.740Z,56.72
2022-08-26T11:08:33.738Z,54.48
2022-08-26T11:14:04.470Z,59.44
2022-08-26T11:19:11.238Z,56.46
2022-08-26T11:24:41.681Z,63.26
2022-08-26T11:30:01.919Z,56.17
2022-08-26T11:35:11.323Z,64.51
2022-08-26T11:40:21.593Z,58.98
2022-08-26T11:45:37.630Z,50.32
2022-08-26T11:50:42.041Z,56.38
2022-08-26T11:55:47.272Z,52.94
2022-08-26T12:00:55.775Z,49.69
2022-08-26T12:05:59.833Z,50.29
2022-08-26T12:11:07.103Z,47.02
2022-08-26T12:16:12.511Z,46.19
2022-08-26T12:21:24.265Z,45.92
2022-08-26T12:26:31.158Z,50.13
2022-08-26T12:31:38.316Z,44.36
2022-08-26T12:36:46.766Z,48.94
2022-08-26T12:41:52.782Z,47.50
2022-08-26T12:47:05.349Z,46.15
2022-08-26T12:52:30.024Z,46.53
2022-08-26T12:57:36.320Z,45.80
2022-08-26T13:02:41.638Z,44.79
2022-08-26T13:07:45.737Z,42.98
2022-08-26T13:12:49.768Z,42.92
2022-08-26T13:17:55.057Z,47.50
2022-08-26T13:23:03.277Z,45.58
2022-08-26T13:28:07.280Z,46.96
2022-08-26T13:33:13.754Z,48.58
2022-08-26T13:38:33.111Z,46.80
2022-08-26T13:43:37.906Z,46.94
2022-08-26T13:48:44.828Z,47.97
2022-08-26T13:53:49.112Z,48.72
2022-08-26T13:58:53.018Z,49.66
2022-08-26T14:03:58.609Z,51.51
2022-08-26T14:09:02.791Z,52.42
2022-08-26T14:14:06.776Z,54.93
2022-08-26T14:19:12.382Z,52.82
2022-08-26T14:24:16.395Z,55.97
2022-08-26T14:29:20.391Z,56.65
2022-08-26T14:34:26.561Z,54.59
2022-08-26T14:39:30.563Z,61.57
2022-08-26T14:44:35.088Z,54.47
2022-08-26T14:49:40.586Z,55.33
2022-08-26T14:54:44.561Z,58.04
2022-08-26T14:59:50.512Z,57.73
2022-08-26T15:04:56.036Z,60.08
2022-08-26T15:09:59.966Z,58.66
2022-08-26T15:15:04.253Z,59.04
2022-08-26T15:20:10.601Z,58.22
2022-08-26T15:25:15.212Z,60.42
2022-08-26T15:30:19.509Z,59.62
2022-08-26T15:35:24.936Z,61.74
2022-08-26T15:40:28.903Z,60.82
2022-08-26T15:45:34.170Z,61.33
2022-08-26T15:50:51.474Z,61.34
2022-08-26T15:55:56.963Z,66.04
2022-08-26T16:01:01.721Z,63.81
2022-08-26T16:06:08.309Z,72.59
2022-08-26T16:11:13.881Z,63.04
2022-08-26T16:16:18.130Z,65.64
2022-08-26T16:21:25.642Z,70.01
2022-08-26T16:26:32.964Z,71.31
2022-08-26T16:31:38.530Z,70.03
2022-08-26T16:36:44.081Z,71.51
2022-08-26T16:41:48.059Z,75.92
2022-08-26T16:46:52.996Z,75.54
2022-08-26T16:52:05.117Z,83.89
2022-08-26T16:57:11.343Z,79.04
2022-08-26T17:02:15.637Z,81.17
2022-08-26T17:07:21.500Z,81.03
2022-08-26T17:12:25.623Z,80.01
2022-08-26T17:17:29.814Z,80.62
2022-08-26T17:22:35.182Z,79.76
2022-08-26T17:27:39.258Z,86.61
2022-08-26T17:32:43.507Z,85.19
2022-08-26T17:37:49.405Z,87.02
2022-08-26T17:42:53.551Z,88.12
2022-08-26T17:47:57.963Z,91.10
2022-08-26T17:53:03.300Z,85.74
2022-08-26T17:58:07.510Z,90.63
2022-08-26T18:03:11.608Z,94.28
2022-08-26T18:08:19.785Z,90.01
2022-08-26T18:13:23.743Z,90.51
2022-08-26T18:18:27.931Z,95.09
2022-08-26T18:23:35.545Z,98.47
2022-08-26T18:28:39.657Z,92.10
2022-08-26T18:33:44.238Z,97.33
2022-08-26T18:38:51.169Z,88.67
2022-08-26T18:43:55.995Z,94.96
2022-08-26T18:49:00.140Z,95.65
2022-08-26T18:54:09.893Z,93.63
2022-08-26T18:59:14.460Z,99.87
2022-08-26T19:04:18.926Z,100.00
2022-08-26T19:09:26.273Z,99.90
2022-08-26T19:14:31.181Z,100.00
2022-08-26T19:19:38.362Z,100.00
2022-08-26T19:24:43.672Z,100.00
2022-08-26T19:29:47.826Z,100.00
2022-08-26T19:34:52.169Z,100.00
2022-08-26T19:39:57.547Z,100.00
2022-08-26T19:45:24.395Z,100.00
2022-08-26T19:50:31.197Z,100.00
2022-08-26T19:55:36.639Z,100.00
2022-08-26T20:00:42.492Z,100.00
2022-08-26T20:05:47.473Z,100.00
2022-08-26T20:10:54.059Z,100.00
2022-08-26T20:15:58.078Z,100.00
2022-08-26T20:21:19.679Z,100.00
2022-08-26T20:26:25.199Z,100.00
2022-08-26T20:31:29.705Z,100.00
2022-08-26T20:36:34.286Z,100.00
2022-08-26T20:41:40.383Z,100.00
2022-08-26T20:46:44.728Z,100.00
2022-08-26T20:51:51.456Z,100.00
2022-08-26T20:56:57.553Z,100.00
2022-08-26T21:02:01.536Z,100.00
2022-08-26T21:07:05.554Z,100.00
2022-08-26T21:12:11.430Z,100.00
2022-08-26T21:17:15.462Z,100.00
2022-08-26T21:22:19.578Z,100.00
2022-08-26T21:27:26.625Z,100.00
2022-08-26T21:32:32.623Z,100.00
2022-08-26T21:37:36.611Z,100.00
2022-08-26T21:42:42.284Z,100.00
2022-08-26T21:47:46.755Z,100.00
2022-08-26T21:52:50.717Z,100.00
2022-08-26T21:57:56.127Z,100.00
2022-08-26T22:03:00.942Z,100.00
2022-08-26T22:08:05.392Z,100.00
2022-08-26T22:13:11.485Z,100.00
2022-08-26T22:18:21.251Z,100.00
2022-08-26T22:23:25.582Z,100.00
2022-08-26T22:28:31.833Z,100.00
2022-08-26T22:33:35.952Z,100.00
2022-08-26T22:38:39.858Z,100.00
2022-08-26T22:43:46.044Z,100.00
2022-08-26T22:48:53.926Z,100.00
2022-08-26T22:53:58.175Z,100.00
2022-08-26T22:59:04.162Z,100.00
2022-08-26T23:04:08.969Z,100.00
2022-08-26T23:09:13.215Z,100.00
2022-08-26T23:14:19.909Z,100.00
2022-08-26T23:19:24.196Z,100.00
2022-08-26T23:24:28.427Z,100.00
2022-08-26T23:29:35.747Z,100.00
2022-08-26T23:34:58.988Z,100.00
2022-08-26T23:40:04.984Z,100.00
2022-08-26T23:45:13.275Z,100.00
2022-08-26T23:50:17.843Z,100.00
2022-08-26T23:55:23.500Z,100.00
